Time;durP1;ratioP1;P1;durP2;ratioP2;P2;SDS_P1;SDS_P2;PMS_P1;PMS_P2;Temp;Humidity;BMP_temperature;BMP_pressure;BME280_temperature;BME280_humidity;BME280_pressure;Samples;Min_cycle;Max_cycle;Signal;HPM_P1;HPM_P2
2022/11/29 00:00:45;;;;;;;23.60;17.60;;;;;;;14.29;100.00;100811.78;2065662;28;20117;-81
2022/11/29 00:02:07;;;;;;;14.20;7.57;;;;;;;14.28;100.00;100812.66;2063141;28;20085;-81
2022/11/29 00:03:29;;;;;;;9.20;4.85;;;;;;;14.28;100.00;100815.31;2063224;28;20057;-81
2022/11/29 00:04:51;;;;;;;9.95;5.68;;;;;;;14.29;100.00;100814.44;2071140;28;20133;-80
2022/11/29 00:06:14;;;;;;;11.30;7.18;;;;;;;14.27;100.00;100810.88;2073294;28;20088;-79
2022/11/29 00:07:37;;;;;;;9.88;6.13;;;;;;;14.28;100.00;100809.13;2065166;28;20081;-79
2022/11/29 00:08:59;;;;;;;8.35;5.45;;;;;;;14.29;100.00;100809.13;2061924;28;20054;-80
2022/11/29 00:10:23;;;;;;;11.02;5.50;;;;;;;14.32;100.00;100814.44;2063740;28;20498;-80
2022/11/29 00:13:26;;;;;;;16.25;9.90;;;;;;;14.33;100.00;100818.84;2081539;28;20068;-80
2022/11/29 00:14:48;;;;;;;18.92;10.07;;;;;;;14.33;100.00;100820.63;2073402;28;20046;-79
2022/11/29 00:16:11;;;;;;;18.02;10.68;;;;;;;14.35;100.00;100822.41;2070804;28;20367;-80
2022/11/29 00:17:34;;;;;;;13.77;8.73;;;;;;;14.38;100.00;100818.00;2063096;28;20042;-80
2022/11/29 00:18:55;;;;;;;13.73;8.30;;;;;;;14.41;100.00;100815.38;2066510;28;20163;-81
2022/11/29 00:20:18;;;;;;;10.65;6.32;;;;;;;14.42;100.00;100814.47;2062634;28;20051;-80
2022/11/29 00:21:39;;;;;;;15.88;9.23;;;;;;;14.43;100.00;100814.50;2057164;28;20050;-81
2022/11/29 00:23:02;;;;;;;19.27;11.55;;;;;;;14.43;100.00;100809.19;2068180;28;20050;-81
2022/11/29 00:24:23;;;;;;;13.82;9.18;;;;;;;14.41;100.00;100810.06;2049102;28;20039;-80
2022/11/29 00:25:47;;;;;;;17.15;10.23;;;;;;;14.41;100.00;100804.75;2057680;28;20521;-80
2022/11/29 00:27:10;;;;;;;16.27;9.18;;;;;;;14.42;100.00;100809.16;2062521;28;20117;-81
2022/11/29 00:28:31;;;;;;;15.23;8.65;;;;;;;14.44;100.00;100810.06;2054412;28;20050;-80
2022/11/29 00:29:54;;;;;;;14.32;6.82;;;;;;;14.45;100.00;100804.72;2053085;28;20130;-78
2022/11/29 00:31:17;;;;;;;25.85;8.85;;;;;;;14.44;100.00;100807.41;2062929;28;20769;-77
2022/11/29 00:32:39;;;;;;;13.15;5.85;;;;;;;14.38;100.00;100800.28;2065932;28;20137;-77
2022/11/29 00:34:05;;;;;;;11.18;6.35;;;;;;;14.36;100.00;100804.72;2064616;28;20054;-76
2022/11/29 00:35:28;;;;;;;15.07;5.57;;;;;;;14.33;100.00;100800.28;2064920;28;20049;-78
2022/11/29 00:36:49;;;;;;;15.80;6.95;;;;;;;14.32;100.00;100805.56;2055282;28;20050;-78
2022/11/29 00:38:11;;;;;;;12.35;5.38;;;;;;;14.33;100.00;100802.94;2061916;28;20093;-78
2022/11/29 00:39:34;;;;;;;10.40;4.85;;;;;;;14.33;100.00;100802.94;2059607;28;20047;-79
2022/11/29 00:40:56;;;;;;;10.63;3.42;;;;;;;14.34;100.00;100807.34;2058285;28;20105;-79
2022/11/29 00:42:19;;;;;;;8.73;3.80;;;;;;;14.33;100.00;100808.25;2059453;28;20433;-79
2022/11/29 00:43:41;;;;;;;8.57;4.10;;;;;;;14.31;100.00;100814.41;2062212;28;20034;-79
2022/11/29 00:45:04;;;;;;;9.18;4.28;;;;;;;14.31;100.00;100814.41;2054484;28;20097;-80
2022/11/29 00:46:25;;;;;;;8.65;4.38;;;;;;;14.28;100.00;100812.66;2062290;28;20046;-79
2022/11/29 00:47:48;;;;;;;6.95;3.47;;;;;;;14.26;100.00;100802.91;2056655;28;20077;-80
2022/11/29 00:49:10;;;;;;;8.25;3.58;;;;;;;14.26;100.00;100811.78;2057455;28;20050;-80
2022/11/29 00:50:33;;;;;;;4.75;2.45;;;;;;;14.25;100.00;100806.44;2061811;28;20044;-81
2022/11/29 00:51:55;;;;;;;7.13;3.17;;;;;;;14.25;100.00;100806.44;2048995;29;20483;-80
2022/11/29 00:53:18;;;;;;;7.82;3.10;;;;;;;14.27;100.00;100807.34;2060218;28;20111;-80
2022/11/29 00:54:40;;;;;;;7.05;3.22;;;;;;;14.29;100.00;100808.25;2064902;28;20409;-80
2022/11/29 00:56:06;;;;;;;9.10;2.88;;;;;;;14.31;100.00;100811.75;2070221;28;20529;-80
2022/11/29 00:57:28;;;;;;;7.28;3.10;;;;;;;14.31;100.00;100812.66;2056489;28;20487;-81
2022/11/29 00:58:49;;;;;;;6.88;3.00;;;;;;;14.33;100.00;100815.31;2062223;28;20049;-78
2022/11/29 01:00:13;;;;;;;6.15;2.92;;;;;;;14.34;100.00;100825.06;2056503;28;20063;-79
2022/11/29 01:01:34;;;;;;;8.48;2.75;;;;;;;14.34;100.00;100820.63;2068038;28;20493;-79
2022/11/29 01:02:56;;;;;;;5.00;2.50;;;;;;;14.32;100.00;100814.44;2056497;28;20610;-78
2022/11/29 01:04:19;;;;;;;7.47;3.00;;;;;;;14.33;100.00;100820.63;2054168;28;20566;-79
2022/11/29 01:05:41;;;;;;;8.32;3.00;;;;;;;14.31;100.00;100810.00;2060053;28;20053;-78
2022/11/29 01:07:04;;;;;;;7.38;2.42;;;;;;;14.33;100.00;100810.91;2064856;28;20058;-79
2022/11/29 01:08:25;;;;;;;4.35;2.63;;;;;;;14.31;100.00;100815.31;2062457;28;20120;-81
2022/11/29 01:09:47;;;;;;;7.93;2.80;;;;;;;14.32;100.00;100813.53;2064402;28;20608;-80
2022/11/29 01:11:14;;;;;;;5.68;2.67;;;;;;;14.32;100.00;100814.44;2054254;28;20055;-80
2022/11/29 01:12:36;;;;;;;7.07;2.63;;;;;;;14.30;100.00;100810.03;2068711;28;20532;-80
2022/11/29 01:14:00;;;;;;;6.80;2.95;;;;;;;14.28;100.00;100811.78;2064717;28;20137;-80
2022/11/29 01:15:23;;;;;;;6.20;3.17;;;;;;;14.25;100.00;100811.75;2061692;28;20050;-80
2022/11/29 01:16:45;;;;;;;9.15;4.43;;;;;;;14.25;100.00;100817.06;2062696;28;20187;-79
2022/11/29 01:18:07;;;;;;;7.95;3.95;;;;;;;14.26;100.00;100811.78;2062069;28;20698;-79
2022/11/29 01:19:29;;;;;;;7.15;3.42;;;;;;;14.26;100.00;100808.22;2062096;28;20046;-81
2022/11/29 01:20:56;;;;;;;9.65;3.55;;;;;;;14.28;100.00;100803.81;2070394;28;20042;-81
2022/11/29 01:22:18;;;;;;;8.23;3.33;;;;;;;14.30;100.00;100808.25;2078455;28;20515;-80
2022/11/29 01:23:40;;;;;;;8.10;3.03;;;;;;;14.31;100.00;100802.03;2056684;28;20150;-80
2022/11/29 01:25:04;;;;;;;7.28;3.17;;;;;;;14.32;100.00;100805.56;2066869;28;20054;-79
2022/11/29 01:26:30;;;;;;;7.78;3.78;;;;;;;14.32;100.00;100798.50;2064660;28;20152;-80
2022/11/29 01:27:51;;;;;;;5.70;2.30;;;;;;;14.32;100.00;100803.81;2064356;28;20108;-79
2022/11/29 01:29:14;;;;;;;11.60;3.58;;;;;;;14.33;100.00;100802.94;2063991;28;20149;-79
2022/11/29 01:30:36;;;;;;;9.35;3.95;;;;;;;14.35;100.00;100798.50;2069652;28;20046;-80
2022/11/29 01:31:59;;;;;;;9.88;4.13;;;;;;;14.38;100.00;100808.25;2068754;28;20097;-80
2022/11/29 01:33:20;;;;;;;15.30;6.13;;;;;;;14.41;100.00;100807.41;2054296;28;20050;-79
2022/11/29 01:34:43;;;;;;;13.38;3.75;;;;;;;14.42;100.00;100802.09;2056121;28;20505;-80
2022/11/29 01:36:06;;;;;;;16.67;4.45;;;;;;;14.44;100.00;100810.94;2054153;28;20543;-79
2022/11/29 01:37:29;;;;;;;12.25;6.70;;;;;;;14.47;100.00;100810.06;2059923;28;20129;-81
2022/11/29 01:38:52;;;;;;;10.13;6.15;;;;;;;14.47;100.00;100807.41;2062173;28;20058;-80
2022/11/29 01:40:14;;;;;;;15.00;8.57;;;;;;;14.49;100.00;100808.28;2063521;28;20065;-79
2022/11/29 01:41:38;;;;;;;14.55;8.98;;;;;;;14.50;100.00;100802.09;2069874;28;20037;-79
2022/11/29 01:42:59;;;;;;;16.70;8.50;;;;;;;14.51;100.00;100809.16;2064223;28;20722;-79
2022/11/29 01:44:59;;;;;;;20.15;13.05;;;;;;;14.50;100.00;100810.97;2056438;28;20489;-78
2022/11/29 01:46:20;;;;;;;7.88;4.10;;;;;;;14.49;100.00;100803.88;2064027;28;20176;-78
2022/11/29 01:47:46;;;;;;;10.38;4.07;;;;;;;14.49;100.00;100803.88;2061588;28;20042;-78
2022/11/29 01:49:10;;;;;;;9.13;4.35;;;;;;;14.49;100.00;100817.16;2061980;28;20144;-79
2022/11/29 01:50:32;;;;;;;9.38;3.30;;;;;;;14.48;100.00;100812.72;2053664;28;20054;-78
2022/11/29 01:51:59;;;;;;;9.75;3.33;;;;;;;14.48;100.00;100812.72;2067326;28;20049;-79
2022/11/29 01:53:21;;;;;;;7.88;4.38;;;;;;;14.48;100.00;100815.38;2064054;28;20812;-78
2022/11/29 01:54:48;;;;;;;9.13;3.80;;;;;;;14.48;100.00;100815.38;2064360;28;20101;-79
2022/11/29 01:56:11;;;;;;;7.05;3.08;;;;;;;14.46;100.00;100819.78;2056482;28;20074;-79
2022/11/29 01:57:36;;;;;;;6.22;3.00;;;;;;;14.48;100.00;100819.78;2067481;28;20402;-80
2022/11/29 01:59:02;;;;;;;7.18;3.10;;;;;;;14.43;100.00;100811.84;2064585;28;20162;-80
2022/11/29 02:00:24;;;;;;;6.57;2.55;;;;;;;14.40;100.00;100813.59;2055429;28;20051;-81
2022/11/29 02:01:46;;;;;;;6.32;2.58;;;;;;;14.38;100.00;100818.00;2061910;28;20421;-81
2022/11/29 02:03:10;;;;;;;9.10;2.78;;;;;;;14.41;100.00;100813.59;2061938;28;20046;-81
2022/11/29 02:04:34;;;;;;;5.32;2.28;;;;;;;14.42;100.00;100819.78;2062538;28;20050;-81
2022/11/29 02:05:56;;;;;;;7.03;2.42;;;;;;;14.42;100.00;100822.44;2064505;28;20046;-81
2022/11/29 02:07:18;;;;;;;5.18;2.03;;;;;;;14.43;100.00;100818.91;2061705;28;20073;-82
2022/11/29 02:08:42;;;;;;;6.63;2.47;;;;;;;14.42;100.00;100818.03;2062074;28;20058;-82
2022/11/29 02:10:06;;;;;;;6.90;2.00;;;;;;;14.39;100.00;100818.00;2058054;28;20465;-82
2022/11/29 02:11:56;;;;;;;5.70;2.42;;;;;;;14.39;100.00;100814.47;2067187;28;20050;-82
2022/11/29 02:13:31;;;;;;;6.00;2.53;;;;;;;14.40;100.00;100822.44;2073027;28;20314;-82
2022/11/29 02:15:09;;;;;;;6.85;2.53;;;;;;;14.41;100.00;100818.03;2071618;28;20053;-82
2022/11/29 02:16:38;;;;;;;6.28;2.78;;;;;;;14.39;100.00;100818.00;2064198;28;20483;-83
2022/11/29 02:18:06;;;;;;;6.35;2.53;;;;;;;14.41;100.00;100813.59;2068857;28;20077;-82
2022/11/29 02:20:04;;;;;;;8.05;2.47;;;;;;;14.39;100.00;100819.78;2062146;28;20042;-79
2022/11/29 02:21:42;;;;;;;6.13;2.75;;;;;;;14.39;100.00;100825.09;2064327;28;20046;-79
2022/11/29 02:23:22;;;;;;;6.60;2.65;;;;;;;14.41;100.00;100826.88;2057707;28;20074;-79
2022/11/29 02:25:05;;;;;;;4.90;2.13;;;;;;;14.43;100.00;100830.44;2056072;28;20683;-78
2022/11/29 02:26:51;;;;;;;6.88;2.00;;;;;;;14.43;100.00;100834.84;2056412;28;20050;-82
2022/11/29 02:28:49;;;;;;;4.65;2.25;;;;;;;14.42;100.00;100836.63;2056219;28;20060;-81
2022/11/29 02:30:48;;;;;;;7.90;2.70;;;;;;;14.39;100.00;100825.09;2063814;28;20526;-81
2022/11/29 02:32:54;;;;;;;6.72;2.20;;;;;;;14.37;100.00;100833.03;2059595;28;20089;-81
2022/11/29 02:34:44;;;;;;;6.03;2.20;;;;;;;14.39;100.00;100830.41;2072460;28;20458;-82
2022/11/29 02:36:19;;;;;;;7.30;2.35;;;;;;;14.42;100.00;100828.66;2064125;28;20046;-81
2022/11/29 02:37:59;;;;;;;6.80;2.60;;;;;;;14.44;100.00;100823.34;2047387;28;20035;-82
2022/11/29 02:39:44;;;;;;;7.10;3.13;;;;;;;14.45;100.00;100825.09;2048138;29;20177;-83
2022/11/29 02:41:21;;;;;;;8.52;2.35;;;;;;;14.46;100.00;100827.75;2064253;28;20050;-81
2022/11/29 02:43:10;;;;;;;4.65;2.17;;;;;;;14.46;100.00;100827.75;2063451;28;20090;-81
2022/11/29 02:44:57;;;;;;;4.43;2.15;;;;;;;14.46;100.00;100833.06;2064235;28;20050;-81
2022/11/29 02:46:48;;;;;;;4.95;2.00;;;;;;;14.44;100.00;100832.16;2064351;28;20054;-81
2022/11/29 02:48:47;;;;;;;8.77;1.90;;;;;;;14.41;100.00;100833.97;2064324;28;20046;-81
2022/11/29 02:50:18;;;;;;;6.72;2.10;;;;;;;14.38;100.00;100828.63;2058302;28;20457;-85
2022/11/29 02:51:47;;;;;;;3.58;1.80;;;;;;;14.36;100.00;100836.59;2063027;28;20046;-84
2022/11/29 02:53:17;;;;;;;7.78;2.40;;;;;;;14.38;100.00;100839.25;2051529;28;20043;-84
2022/11/29 02:54:50;;;;;;;5.05;1.90;;;;;;;14.38;100.00;100832.16;2053706;28;20070;-84
2022/11/29 02:56:27;;;;;;;4.40;1.88;;;;;;;14.40;100.00;100834.84;2054303;28;20051;-85
2022/11/29 02:57:56;;;;;;;7.38;2.03;;;;;;;14.42;100.00;100841.94;2057076;28;20090;-84
2022/11/29 02:59:34;;;;;;;6.38;2.03;;;;;;;14.44;100.00;100840.13;2064348;28;20073;-83
2022/11/29 03:01:08;;;;;;;6.60;2.20;;;;;;;14.44;100.00;100839.28;2071426;28;20510;-84
2022/11/29 03:02:39;;;;;;;4.43;1.75;;;;;;;14.44;100.00;100839.28;2072307;28;20049;-84
2022/11/29 03:04:13;;;;;;;7.40;1.67;;;;;;;14.44;100.00;100848.09;2063625;28;20082;-84
2022/11/29 03:05:43;;;;;;;8.18;2.22;;;;;;;14.43;100.00;100837.50;2063448;28;20058;-83
2022/11/29 03:07:12;;;;;;;20.67;9.52;;;;;;;14.44;100.00;100844.59;2054821;28;20055;-83
2022/11/29 03:08:41;;;;;;;19.15;9.80;;;;;;;14.45;100.00;100851.66;2066571;28;20064;-82
2022/11/29 03:10:08;;;;;;;28.55;13.73;;;;;;;14.44;100.00;100839.28;2066294;28;20630;-82
2022/11/29 03:11:38;;;;;;;26.25;12.25;;;;;;;14.43;100.00;100843.72;2062407;28;20395;-82
2022/11/29 03:13:02;;;;;;;19.55;9.52;;;;;;;14.43;100.00;100840.16;2054384;28;20121;-82
2022/11/29 03:14:28;;;;;;;22.42;10.52;;;;;;;14.41;100.00;100847.22;2067490;28;20046;-81
2022/11/29 03:15:58;;;;;;;21.05;10.02;;;;;;;14.39;100.00;100844.56;2056328;28;20090;-82
2022/11/29 03:17:31;;;;;;;9.98;3.75;;;;;;;14.40;100.00;100848.13;2062356;28;20073;-81
2022/11/29 03:19:03;;;;;;;7.50;3.17;;;;;;;14.43;100.00;100842.81;2063327;28;20042;-82
2022/11/29 03:20:50;;;;;;;8.13;2.83;;;;;;;14.42;100.00;100835.72;2062568;28;20056;-81
2022/11/29 03:22:24;;;;;;;14.50;7.25;;;;;;;14.44;100.00;100844.59;2055817;28;20096;-81
2022/11/29 03:23:50;;;;;;;17.17;8.07;;;;;;;14.43;100.00;100843.72;2062421;28;20054;-81
2022/11/29 03:25:21;;;;;;;17.77;9.00;;;;;;;14.44;100.00;100849.91;2061860;28;20116;-81
2022/11/29 03:26:48;;;;;;;20.20;10.57;;;;;;;14.45;100.00;100852.53;2055999;28;20057;-81
2022/11/29 03:28:14;;;;;;;17.95;9.10;;;;;;;14.47;100.00;100844.59;2069002;28;20057;-82
2022/11/29 03:29:42;;;;;;;9.82;4.70;;;;;;;14.49;100.00;100842.81;2055760;28;20573;-81
2022/11/29 03:31:12;;;;;;;11.13;4.88;;;;;;;14.51;100.00;100849.00;2060119;28;20042;-80
2022/11/29 03:32:42;;;;;;;15.52;6.93;;;;;;;14.52;100.00;100840.16;2054706;28;20057;-82
2022/11/29 03:34:16;;;;;;;13.63;6.55;;;;;;;14.55;100.00;100845.47;2052879;28;20097;-81
2022/11/29 03:35:52;;;;;;;9.82;5.75;;;;;;;14.56;100.00;100844.59;2055749;28;20418;-81
2022/11/29 03:37:18;;;;;;;14.52;6.45;;;;;;;14.58;100.00;100848.13;2062253;28;20502;-83
2022/11/29 03:38:43;;;;;;;12.00;7.45;;;;;;;14.59;100.00;100853.44;2061031;28;20058;-83
2022/11/29 03:40:11;;;;;;;65.10;35.35;;;;;;;14.59;100.00;100849.91;2060184;28;20038;-81
2022/11/29 03:41:41;;;;;;;16.77;9.20;;;;;;;14.59;100.00;100853.44;2054532;28;20062;-81
2022/11/29 03:43:08;;;;;;;6.10;3.17;;;;;;;14.59;100.00;100855.22;2048271;28;20047;-81
2022/11/29 03:44:36;;;;;;;6.30;2.58;;;;;;;14.58;100.00;100856.09;2054112;28;20706;-82
2022/11/29 03:46:04;;;;;;;4.60;2.25;;;;;;;14.59;100.00;100858.75;2059337;28;20371;-82
2022/11/29 03:47:33;;;;;;;5.07;2.20;;;;;;;14.59;100.00;100855.22;2054589;28;20058;-82
2022/11/29 03:49:01;;;;;;;5.93;2.22;;;;;;;14.58;100.00;100854.31;2059469;28;20082;-81
2022/11/29 03:50:32;;;;;;;4.97;2.17;;;;;;;14.59;100.00;100861.41;2062317;28;20058;-82
2022/11/29 03:52:06;;;;;;;5.20;1.65;;;;;;;14.59;100.00;100856.09;2055876;28;20047;-82
2022/11/29 03:53:33;;;;;;;4.45;2.20;;;;;;;14.59;100.00;100849.91;2062857;28;20514;-80
2022/11/29 03:55:07;;;;;;;4.82;1.40;;;;;;;14.59;100.00;100857.88;2054185;28;20110;-82
2022/11/29 03:56:32;;;;;;;6.50;1.30;;;;;;;14.58;100.00;100854.31;2062768;28;20050;-81
2022/11/29 03:58:13;;;;;;;3.47;0.90;;;;;;;14.57;100.00;100857.00;2056036;28;20553;-81
2022/11/29 03:59:52;;;;;;;2.00;1.13;;;;;;;14.55;100.00;100856.09;2064034;28;20062;-82
2022/11/29 04:01:47;;;;;;;5.45;1.30;;;;;;;14.51;100.00;100849.00;2048240;28;20118;-81
2022/11/29 04:03:49;;;;;;;3.78;1.40;;;;;;;14.47;100.00;100849.91;2056003;28;20568;-80
2022/11/29 04:05:20;;;;;;;3.38;1.20;;;;;;;14.43;100.00;100853.44;2033415;28;20119;-82
2022/11/29 04:07:01;;;;;;;2.83;1.35;;;;;;;14.39;100.00;100857.84;2054294;28;20039;-83
2022/11/29 04:08:52;;;;;;;3.95;1.30;;;;;;;14.35;100.00;100856.94;2061893;28;20078;-83
2022/11/29 04:10:32;;;;;;;3.17;1.00;;;;;;;14.38;100.00;100857.84;2064163;28;20054;-84
2022/11/29 04:12:08;;;;;;;2.03;0.88;;;;;;;14.35;100.00;100862.25;2064342;28;20043;-82
2022/11/29 04:14:10;;;;;;;2.50;1.20;;;;;;;14.34;100.00;100860.47;2064098;28;20061;-84
2022/11/29 04:16:06;;;;;;;2.72;1.08;;;;;;;14.31;100.00;100864.88;2056649;28;20054;-83
2022/11/29 04:18:06;;;;;;;2.95;1.23;;;;;;;14.27;100.00;100861.34;2062402;28;20517;-82
2022/11/29 04:20:00;;;;;;;2.72;1.13;;;;;;;14.23;100.00;100861.34;2048133;28;20062;-82
2022/11/29 04:21:52;;;;;;;3.72;1.50;;;;;;;14.15;100.00;100861.31;2049805;28;20064;-83
2022/11/29 04:23:35;;;;;;;4.28;2.20;;;;;;;14.10;100.00;100863.09;2055632;28;20042;-82
2022/11/29 04:25:23;;;;;;;4.72;1.58;;;;;;;14.07;100.00;100868.38;2063896;28;20133;-82
2022/11/29 04:27:13;;;;;;;4.03;1.30;;;;;;;14.03;100.00;100874.56;2055650;28;20043;-81
2022/11/29 04:29:09;;;;;;;2.30;1.15;;;;;;;14.02;100.00;100877.19;2066805;28;20116;-81
2022/11/29 04:30:40;;;;;;;4.30;1.88;;;;;;;14.00;100.00;100876.31;2064033;28;20446;-82
2022/11/29 04:32:17;;;;;;;4.85;2.58;;;;;;;13.97;100.00;100877.19;2063223;28;20054;-82
2022/11/29 04:34:09;;;;;;;4.97;2.22;;;;;;;13.94;100.00;100878.06;2063143;28;20046;-82
2022/11/29 04:35:48;;;;;;;6.32;2.28;;;;;;;13.93;100.00;100872.75;2064867;28;20096;-83
2022/11/29 04:37:28;;;;;;;6.40;2.15;;;;;;;13.92;100.00;100870.97;2065104;28;20069;-82
2022/11/29 04:39:29;;;;;;;5.07;2.70;;;;;;;13.89;100.00;100877.16;2062156;28;20058;-82
2022/11/29 04:41:14;;;;;;;7.28;2.65;;;;;;;13.90;100.00;100872.75;2073322;28;20103;-83
2022/11/29 04:42:51;;;;;;;5.13;2.35;;;;;;;13.91;100.00;100874.53;2056876;28;20046;-82
2022/11/29 04:44:37;;;;;;;7.47;3.17;;;;;;;13.90;100.00;100868.31;2055722;28;20104;-83
2022/11/29 04:46:25;;;;;;;6.93;3.58;;;;;;;13.92;100.00;100879.81;2057335;28;20515;-83
2022/11/29 04:48:03;;;;;;;4.95;2.47;;;;;;;13.95;100.00;100887.81;2056059;28;20053;-82
2022/11/29 04:49:56;;;;;;;4.30;2.47;;;;;;;13.98;100.00;100881.59;2056958;28;20054;-82
2022/11/29 04:51:32;;;;;;;6.90;2.22;;;;;;;14.03;100.00;100890.50;2057380;28;20089;-82
2022/11/29 04:53:12;;;;;;;6.43;3.22;;;;;;;14.07;100.00;100892.25;2056381;28;20039;-82
2022/11/29 04:54:41;;;;;;;4.00;1.67;;;;;;;14.08;100.00;100898.47;2065234;28;20185;-83
2022/11/29 04:56:18;;;;;;;4.90;1.77;;;;;;;14.10;100.00;100891.41;2057104;28;20047;-82
2022/11/29 04:57:45;;;;;;;5.93;1.83;;;;;;;14.14;100.00;100895.81;2065626;28;20368;-82
2022/11/29 04:59:16;;;;;;;5.40;1.67;;;;;;;14.15;100.00;100895.84;2063164;28;20142;-82
2022/11/29 05:00:45;;;;;;;2.97;1.35;;;;;;;14.17;100.00;100896.72;2054325;28;20053;-82
2022/11/29 05:02:15;;;;;;;3.80;1.50;;;;;;;14.19;100.00;100900.25;2069886;28;20056;-83
2022/11/29 05:03:43;;;;;;;2.50;1.25;;;;;;;14.21;100.00;100901.16;2064882;28;20042;-82
2022/11/29 05:05:21;;;;;;;3.55;1.20;;;;;;;14.22;100.00;100900.28;2062992;28;20039;-82
2022/11/29 05:06:55;;;;;;;4.00;1.30;;;;;;;14.24;100.00;100905.59;2064948;28;20741;-82
2022/11/29 05:08:29;;;;;;;3.38;1.50;;;;;;;14.23;100.00;100899.41;2064688;28;20046;-82
2022/11/29 05:10:03;;;;;;;2.45;1.42;;;;;;;14.24;100.00;100902.94;2064782;28;20034;-82
2022/11/29 05:11:38;;;;;;;4.60;1.88;;;;;;;14.26;100.00;100901.16;2064273;28;20054;-82
2022/11/29 05:13:10;;;;;;;7.40;1.70;;;;;;;14.27;100.00;100903.81;2072450;28;20050;-82
2022/11/29 05:14:43;;;;;;;1.80;1.20;;;;;;;14.31;100.00;100899.41;2057274;28;20471;-82
2022/11/29 05:16:18;;;;;;;2.92;1.20;;;;;;;14.31;100.00;100907.38;2062694;28;20069;-82
2022/11/29 05:17:50;;;;;;;4.05;1.40;;;;;;;14.29;100.00;100902.06;2055395;28;20051;-82
2022/11/29 05:19:49;;;;;;;4.93;1.95;;;;;;;14.30;100.00;100897.66;2071969;28;20053;-82
2022/11/29 05:21:18;;;;;;;11.10;6.55;;;;;;;14.31;100.00;100899.41;2040750;29;20059;-83
2022/11/29 05:22:52;;;;;;;15.27;8.65;;;;;;;14.33;100.00;100903.84;2046808;29;20407;-82
2022/11/29 05:24:26;;;;;;;14.65;9.38;;;;;;;14.36;100.00;100892.34;2056864;28;20042;-83
2022/11/29 05:25:55;;;;;;;17.17;12.77;;;;;;;14.41;100.00;100897.69;2063350;28;20042;-83
2022/11/29 05:27:27;;;;;;;18.38;12.15;;;;;;;14.43;100.00;100890.63;2054904;28;20055;-82
2022/11/29 05:28:59;;;;;;;12.80;9.27;;;;;;;14.46;100.00;100890.63;2066163;28;20462;-82
2022/11/29 05:30:24;;;;;;;9.18;6.00;;;;;;;14.50;100.00;100892.41;2065080;28;20046;-82
2022/11/29 05:31:58;;;;;;;5.85;2.55;;;;;;;14.51;100.00;100892.38;2062852;28;20034;-82
2022/11/29 05:33:38;;;;;;;4.57;2.03;;;;;;;14.54;100.00;100897.72;2065107;28;20046;-82
2022/11/29 05:35:38;;;;;;;5.32;1.63;;;;;;;14.55;100.00;100901.28;2048081;29;20054;-82
2022/11/29 05:37:10;;;;;;;4.68;2.80;;;;;;;14.51;100.00;100905.69;2064825;28;20502;-82
2022/11/29 05:38:50;;;;;;;12.32;5.80;;;;;;;14.48;100.00;100912.75;2063161;28;20042;-82
2022/11/29 05:40:44;;;;;;;39.67;16.23;;;;;;;14.41;100.00;100914.53;2055516;28;20133;-77
2022/11/29 05:42:28;;;;;;;79.15;15.95;;;;;;;14.33;100.00;100908.25;2060699;28;20049;-78
2022/11/29 05:44:02;;;;;;;17.25;7.30;;;;;;;14.29;100.00;100910.03;2056274;28;21762;-76
2022/11/29 05:45:30;;;;;;;13.57;7.70;;;;;;;14.30;100.00;100909.16;2063154;28;20045;-78
2022/11/29 05:46:57;;;;;;;16.17;6.30;;;;;;;14.29;100.00;100910.03;2070819;28;20041;-79
2022/11/29 05:48:28;;;;;;;11.63;5.70;;;;;;;14.31;100.00;100920.66;2055783;28;20042;-78
2022/11/29 05:50:00;;;;;;;7.43;2.78;;;;;;;14.36;100.00;100918.91;2053252;28;20543;-80
2022/11/29 05:51:25;;;;;;;;;;;;;;;14.34;100.00;100926.88;2063690;28;20054;-80
2022/11/29 05:52:56;;;;;;;12.23;3.97;;;;;;;14.40;100.00;100926.03;2056388;28;20353;-79
2022/11/29 05:54:28;;;;;;;7.65;3.70;;;;;;;14.43;100.00;100933.13;2070364;28;20112;-81
2022/11/29 05:56:02;;;;;;;9.63;4.32;;;;;;;14.45;100.00;100942.84;2058255;28;20070;-82
2022/11/29 05:57:39;;;;;;;5.30;1.63;;;;;;;14.48;100.00;100942.00;2065504;28;20085;-79
2022/11/29 05:59:05;;;;;;;5.63;1.40;;;;;;;14.53;100.00;100954.41;2064216;28;20046;-80
2022/11/29 06:00:35;;;;;;;8.60;3.38;;;;;;;14.56;100.00;100950.88;2055407;28;20380;-80
2022/11/29 06:02:11;;;;;;;8.40;2.60;;;;;;;14.60;100.00;100957.94;2062874;28;20058;-81
2022/11/29 06:03:39;;;;;;;7.47;2.75;;;;;;;14.63;100.00;100957.97;2056995;28;20059;-83
2022/11/29 06:05:12;;;;;;;6.50;2.20;;;;;;;14.65;100.00;100961.50;2062949;28;20062;-87
2022/11/29 06:06:43;;;;;;;12.48;4.50;;;;;;;14.66;100.00;100956.19;2050208;28;20043;-88
2022/11/29 06:08:13;;;;;;;10.20;4.67;;;;;;;14.70;100.00;100962.41;2064338;28;20049;-88
2022/11/29 06:09:41;;;;;;;15.27;7.15;;;;;;;14.68;100.00;100961.53;2071376;28;20295;-88
2022/11/29 06:11:15;;;;;;;20.38;8.02;;;;;;;14.68;100.00;100964.19;2062705;28;20050;-86
2022/11/29 06:12:47;;;;;;;10.25;4.93;;;;;;;14.67;100.00;100963.28;2061222;28;20438;-87
2022/11/29 06:14:21;;;;;;;18.08;7.85;;;;;;;14.66;100.00;100963.28;2055559;28;20058;-88
2022/11/29 06:16:03;;;;;;;19.83;11.43;;;;;;;14.64;100.00;100976.56;2070438;28;20494;-89
2022/11/29 06:17:39;;;;;;;26.80;16.75;;;;;;;14.64;100.00;100970.34;2057624;28;20298;-88
2022/11/29 06:19:40;;;;;;;35.08;29.30;;;;;;;14.61;100.00;100975.66;2060035;28;20526;-89
2022/11/29 06:21:17;;;;;;;13.70;10.30;;;;;;;14.63;100.00;100980.13;2073616;28;20069;-89
2022/11/29 06:23:09;;;;;;;13.10;9.20;;;;;;;14.61;100.00;100981.00;2072560;28;20105;-88
2022/11/29 06:24:46;;;;;;;37.58;31.23;;;;;;;14.62;100.00;100982.78;2064651;28;20149;-89
2022/11/29 06:26:24;;;;;;;21.23;14.88;;;;;;;14.64;100.00;100986.28;2060423;28;20481;-89
2022/11/29 06:28:03;;;;;;;17.17;11.25;;;;;;;14.69;100.00;100987.22;2055918;28;20062;-87
2022/11/29 06:29:33;;;;;;;10.40;7.18;;;;;;;14.72;100.00;100988.09;2063865;28;20149;-89
2022/11/29 06:31:03;;;;;;;28.45;23.08;;;;;;;14.79;100.00;100996.97;2063179;28;20072;-89
2022/11/29 06:32:35;;;;;;;34.60;30.55;;;;;;;14.84;100.00;100987.22;2071112;28;20052;-89
2022/11/29 06:34:04;;;;;;;41.80;35.67;;;;;;;14.91;100.00;100982.81;2058775;28;20145;-89
2022/11/29 06:35:38;;;;;;;24.23;19.58;;;;;;;14.97;100.00;100990.78;2062752;28;20147;-88
2022/11/29 06:37:09;;;;;;;35.20;24.33;;;;;;;15.03;100.00;100990.81;2063870;28;20051;-88
2022/11/29 06:38:31;;;;;;;28.70;20.40;;;;;;;15.07;100.00;100996.13;2069181;28;20525;-88
2022/11/29 06:39:55;;;;;;;20.75;17.05;;;;;;;15.14;100.00;101000.56;2063812;28;20050;-88
2022/11/29 06:41:20;;;;;;;13.32;8.75;;;;;;;15.19;100.00;100995.25;2064281;28;20054;-88
2022/11/29 06:42:43;;;;;;;6.63;3.10;;;;;;;15.21;100.00;101003.22;2054484;28;20042;-88
2022/11/29 06:44:08;;;;;;;8.30;3.28;;;;;;;15.23;100.00;100993.50;2055828;28;20407;-88
2022/11/29 06:45:32;;;;;;;8.82;4.65;;;;;;;15.23;100.00;101004.13;2070560;28;20062;-87
2022/11/29 06:47:05;;;;;;;6.50;2.88;;;;;;;15.25;100.00;101002.34;2061460;28;20043;-86
2022/11/29 06:48:30;;;;;;;5.43;2.72;;;;;;;15.26;100.00;101005.00;2067922;28;20050;-87
2022/11/29 06:50:10;;;;;;;5.53;2.65;;;;;;;15.29;100.00;101004.13;2061727;28;20047;-86
2022/11/29 06:51:42;;;;;;;6.70;2.85;;;;;;;15.29;100.00;101006.78;2068424;28;20076;-88
2022/11/29 06:53:14;;;;;;;5.28;2.42;;;;;;;15.29;100.00;101009.47;2063286;28;20108;-88
2022/11/29 06:54:53;;;;;;;15.70;8.87;;;;;;;15.26;100.00;101006.78;2067848;28;20046;-87
2022/11/29 06:56:23;;;;;;;13.60;6.38;;;;;;;15.24;100.00;101014.75;2060885;28;20338;-88
2022/11/29 06:58:06;;;;;;;16.35;10.15;;;;;;;15.24;100.00;101003.22;2064157;28;20117;-88
2022/11/29 06:59:37;;;;;;;;;;;;;;;15.22;100.00;101015.66;2057130;28;20046;-88
2022/11/29 07:01:08;;;;;;;13.73;8.65;;;;;;;15.30;100.00;101009.44;2063139;28;19968;-88
2022/11/29 07:02:59;;;;;;;13.57;8.57;;;;;;;15.34;100.00;101013.00;2064758;28;20042;-88